METAR Data
IDs: Format: Raw Decoded Include TAF

Data at: 1429 UTC 10 Aug 2022

KCMA 101355Z 00000KT 8SM CLR 18/14 A2998 RMK AO2 SLP160 T01830144
KCMA 101255Z AUTO 07005KT 10SM CLR 17/14 A2996 RMK AO2 SLP153 T01720144
KCMA 101155Z AUTO 06004KT 10SM CLR 17/14 A2995 RMK AO2 SLP151 T01720144 10194 20172 58002
KCMA 101055Z AUTO 09004KT 9SM CLR 17/14 A2996 RMK AO2 SLP152 T01720144
KCMA 100955Z AUTO 07003KT 9SM CLR 17/14 A2996 RMK AO2 SLP152 T01720144
KCMA 100855Z AUTO 00000KT 9SM CLR 18/14 A2996 RMK AO2 SLP152 T01780144 53005
KCMA 100755Z AUTO 00000KT 10SM CLR 18/15 A2995 RMK AO2 SLP148 T01830150 402940172
KCMA 100655Z AUTO 21004KT 10SM CLR 19/15 A2995 RMK AO2 SLP149 T01890150
KCMA 100555Z AUTO 28004KT 9SM CLR 19/16 A2994 RMK AO2 SLP146 T01890156 10261 20189 51015
KCMA 100455Z AUTO 27005KT 10SM CLR 19/16 A2993 RMK AO2 SLP145 T01940156
KCMA 100355Z 28004KT 10SM CLR 20/16 A2991 RMK AO2 SLP136 T02000156
KCMA 100255Z 22003KT 10SM CLR 22/14 A2990 RMK AO2 SLP132 T02220144 53002
KCMA 100155Z 23005KT 10SM CLR 23/14 A2989 RMK AO2 SLP129 T02330144
KCMA 100055Z AUTO 25008KT 10SM CLR 25/14 A2989 RMK AO2 SLP129 T02500144
KCMA 092355Z 24009KT 10SM CLR 26/15 A2989 RMK AO2 SLP130 T02610150 10294 20256 56010
KCMA 092255Z 27009KT 10SM CLR 27/15 A2990 RMK AO2 SLP133 T02670150
KCMA 092155Z 26010KT 10SM CLR 27/14 A2991 RMK AO2 SLP135 T02720144
KCMA 092055Z 25009KT 10SM CLR 28/15 A2992 RMK AO2 SLP139 T02830150 58011
KCMA 091955Z 27008KT 10SM CLR 29/15 A2993 RMK AO2 SLP141 T02890150
KCMA 091855Z 25006KT 10SM CLR 28/16 A2995 RMK AO2 SLP148 T02780156
KCMA 091755Z VRB04KT 10SM CLR 26/16 A2995 RMK AO2 SLP150 T02610156 10261 20172 50005
KCMA 091655Z 24005KT 9SM CLR 23/17 A2995 RMK AO2 SLP151 T02280167
KCMA 091555Z 00000KT 8SM CLR 20/16 A2995 RMK AO2 SLP148 T02000156
KCMA 091455Z 00000KT 8SM CLR 19/16 A2994 RMK AO2 SLP146 T01890156 51011
KCMA 091355Z AUTO 00000KT 7SM CLR 18/15 A2993 RMK AO2 SLP143 T01830150
KCMA 091255Z AUTO 00000KT 9SM CLR 18/15 A2992 RMK AO2 SLP138 T01780150
KCMA 091155Z AUTO 00000KT 7SM CLR 17/15 A2990 RMK AO2 SLP134 T01720150 10189 20172 53001
KCMA 091055Z AUTO 00000KT 9SM CLR 18/15 A2990 RMK AO2 SLP133 T01780150
KCMA 090955Z AUTO 00000KT 9SM CLR 18/16 A2990 RMK AO2 SLP132 T01780156
KCMA 090855Z AUTO 29003KT 8SM CLR 17/16 A2990 RMK AO2 SLP133 T01720156 58005
KCMA 090755Z AUTO 00000KT 9SM CLR 18/16 A2991 RMK AO2 SLP138 T01830156 402720167
KCMA 090655Z AUTO 00000KT 9SM CLR 19/16 A2991 RMK AO2 SLP138 T01890156
KCMA 090555Z AUTO 29004KT 8SM CLR 19/16 A2991 RMK AO2 SLP138 T01890156 10261 20189 50012
KCMA 090455Z AUTO 27004KT 9SM CLR 19/16 A2992 RMK AO2 SLP140 T01940156
KCMA 090355Z 29004KT 10SM CLR 20/16 A2990 RMK AO2 SLP132 T02000156
KCMA 090255Z 24005KT 9SM CLR 21/16 A2988 RMK AO2 SLP126 T02110156 53001